createdAt,value
2022-11-13T12:02:33.539Z,16.73
2022-11-13T12:08:01.165Z,17.85
2022-11-13T12:13:33.855Z,17.75
2022-11-13T12:18:56.406Z,19.67
2022-11-13T12:24:42.965Z,17.48
2022-11-13T12:30:13.843Z,19.25
2022-11-13T12:35:28.169Z,19.95
2022-11-13T12:40:48.460Z,18.92
2022-11-13T12:46:05.621Z,16.88
2022-11-13T12:51:21.259Z,19.80
2022-11-13T12:56:36.428Z,16.83
2022-11-13T13:01:53.601Z,17.45
2022-11-13T13:07:27.232Z,16.38
2022-11-13T13:12:50.778Z,15.65
2022-11-13T13:18:11.326Z,19.50
2022-11-13T13:23:29.484Z,17.98
2022-11-13T13:28:45.331Z,18.75
2022-11-13T13:34:09.255Z,17.20
2022-11-13T13:39:30.185Z,18.25
2022-11-13T13:45:02.748Z,18.55
2022-11-13T13:50:20.539Z,18.10
2022-11-13T13:55:35.318Z,16.80
2022-11-13T14:06:34.219Z,18.87
2022-11-13T14:11:47.983Z,20.23
2022-11-13T14:17:03.991Z,19.20
2022-11-13T14:22:16.323Z,19.90
2022-11-13T14:27:31.295Z,21.00
2022-11-13T14:32:47.337Z,25.10
2022-11-13T14:37:59.799Z,26.13
2022-11-13T14:43:20.059Z,22.77
2022-11-13T14:48:35.253Z,20.67
2022-11-13T14:53:59.666Z,21.10
2022-11-13T14:59:19.997Z,22.20
2022-11-13T15:04:39.300Z,23.80
2022-11-13T15:09:52.986Z,25.70
2022-11-13T15:15:06.018Z,24.80
2022-11-13T15:20:27.225Z,32.57
2022-11-13T15:25:40.115Z,34.97
2022-11-13T15:31:06.094Z,34.40
2022-11-13T15:36:20.904Z,24.53
2022-11-13T15:41:37.738Z,27.70
2022-11-13T15:46:51.544Z,21.67
2022-11-13T15:52:09.140Z,26.70
2022-11-13T15:57:26.435Z,26.27
2022-11-13T16:02:40.275Z,26.20
2022-11-13T16:08:00.668Z,22.07
2022-11-13T16:13:16.535Z,23.23
2022-11-13T16:18:32.035Z,31.23
2022-11-13T16:23:46.466Z,26.80
2022-11-13T16:29:18.979Z,27.90
